createdAt,value
2018-07-04T00:00:00.695Z,25.8
2018-07-04T00:01:08.847Z,25.8
2018-07-04T00:02:15.295Z,25.8
2018-07-04T00:03:14.774Z,25.7
2018-07-04T00:04:15.190Z,25.7
2018-07-04T00:05:13.847Z,25.7
2018-07-04T00:06:09.197Z,25.7
2018-07-04T00:07:12.511Z,25.7
2018-07-04T00:08:21.319Z,25.7
2018-07-04T00:09:35.517Z,25.7
2018-07-04T00:10:32.601Z,25.7
2018-07-04T00:11:30.586Z,25.7
2018-07-04T00:12:37.211Z,25.7
2018-07-04T00:13:33.519Z,25.6
2018-07-04T00:14:33.749Z,25.6
2018-07-04T00:15:30.203Z,25.6
2018-07-04T00:16:28.273Z,25.6
2018-07-04T00:17:30.523Z,25.6
2018-07-04T00:18:28.332Z,25.6
2018-07-04T00:19:27.407Z,25.6
2018-07-04T00:20:45.859Z,25.6
2018-07-04T00:21:43.294Z,25.6
2018-07-04T00:22:38.811Z,25.5
2018-07-04T00:23:42.079Z,25.5
2018-07-04T00:24:42.059Z,25.5
2018-07-04T00:25:47.643Z,25.5
2018-07-04T00:26:54.613Z,25.5
2018-07-04T00:27:49.870Z,25.5
2018-07-04T00:28:47.819Z,25.5
2018-07-04T00:29:52.110Z,25.5
2018-07-04T00:30:49.676Z,25.5
2018-07-04T00:31:54.078Z,25.5
2018-07-04T00:32:51.702Z,25.5
2018-07-04T00:34:05.198Z,25.4
2018-07-04T00:35:03.840Z,25.4
2018-07-04T00:36:00.294Z,25.4
2018-07-04T00:37:02.693Z,25.4
2018-07-04T00:37:59.261Z,25.4
2018-07-04T00:39:13.519Z,25.4
2018-07-04T00:40:13.224Z,25.4
2018-07-04T00:41:14.907Z,25.4
2018-07-04T00:42:10.399Z,25.4
2018-07-04T00:43:09.967Z,25.3
2018-07-04T00:44:11.727Z,25.3
2018-07-04T00:45:10.595Z,25.3
2018-07-04T00:46:11.345Z,25.3
2018-07-04T00:47:07.480Z,25.3
2018-07-04T00:48:07.627Z,25.4
2018-07-04T00:49:07.328Z,25.3
2018-07-04T00:50:14.965Z,25.3
2018-07-04T00:51:11.264Z,25.3
2018-07-04T00:52:30.971Z,25.3
2018-07-04T00:53:28.272Z,25.3
2018-07-04T00:54:22.725Z,25.3
2018-07-04T00:55:20.383Z,25.3
2018-07-04T00:56:22.603Z,25.3
2018-07-04T00:57:30.604Z,25.3
2018-07-04T00:58:29.756Z,25.3
2018-07-04T00:59:32.876Z,25.3
2018-07-04T01:00:31.474Z,25.3
2018-07-04T01:01:35.323Z,25.3
2018-07-04T01:02:32.963Z,25.2
2018-07-04T01:03:33.256Z,25.2
2018-07-04T01:04:27.907Z,25.2
2018-07-04T01:05:32.145Z,25.3
2018-07-04T01:06:28.597Z,25.2
2018-07-04T01:07:29.011Z,25.2
2018-07-04T01:08:41.291Z,25.2
2018-07-04T01:09:35.422Z,25.2
2018-07-04T01:10:36.782Z,25.2
2018-07-04T01:11:38.038Z,25.2
2018-07-04T01:12:35.501Z,25.2
2018-07-04T01:13:34.136Z,25.1
2018-07-04T01:14:35.058Z,25.2
2018-07-04T01:15:36.467Z,25.1
2018-07-04T01:16:30.973Z,25.1
2018-07-04T01:17:33.134Z,25.1
2018-07-04T01:18:34.063Z,25.1
2018-07-04T01:19:29.558Z,25.1
2018-07-04T01:20:30.334Z,25.1
2018-07-04T01:21:35.999Z,25.1
2018-07-04T01:22:37.573Z,25.1
2018-07-04T01:23:35.232Z,25.1
2018-07-04T01:24:33.103Z,25.1
2018-07-04T01:25:33.455Z,25.1
2018-07-04T01:26:32.897Z,25.1
2018-07-04T01:27:32.592Z,25.1
2018-07-04T01:28:37.794Z,25.1
2018-07-04T01:29:35.972Z,25.1
2018-07-04T01:30:35.350Z,25.1
2018-07-04T01:31:36.475Z,25.1
2018-07-04T01:32:33.971Z,25.1
2018-07-04T01:33:33.255Z,25
2018-07-04T01:34:49.259Z,25
2018-07-04T01:35:49.020Z,25.1
2018-07-04T01:36:47.987Z,25.1
2018-07-04T01:37:48.325Z,25.1
2018-07-04T01:38:49.052Z,25
2018-07-04T01:39:50.978Z,25
2018-07-04T01:40:52.483Z,25
2018-07-04T01:41:50.978Z,25
2018-07-04T01:42:53.041Z,25
2018-07-04T01:43:58.086Z,25
2018-07-04T01:44:59.154Z,25
2018-07-04T01:46:07.566Z,25
2018-07-04T01:47:02.213Z,25
2018-07-04T01:48:18.028Z,25
2018-07-04T01:49:12.490Z,25
2018-07-04T01:50:22.817Z,25
2018-07-04T01:51:20.756Z,25
2018-07-04T01:52:32.038Z,25
2018-07-04T01:53:28.274Z,25
2018-07-04T01:54:28.697Z,25
2018-07-04T01:55:25.411Z,24.9
2018-07-04T01:56:25.214Z,24.9
2018-07-04T01:57:23.824Z,24.9
2018-07-04T01:58:28.457Z,24.9
2018-07-04T01:59:24.812Z,24.9
2018-07-04T02:00:22.587Z,24.9
2018-07-04T02:01:20.757Z,24.9
2018-07-04T02:02:18.448Z,24.9
2018-07-04T02:03:17.857Z,24.9
2018-07-04T02:04:16.041Z,24.9
2018-07-04T02:05:25.550Z,24.9
2018-07-04T02:06:23.034Z,24.9
2018-07-04T02:07:24.234Z,24.9
2018-07-04T02:08:22.600Z,24.9
2018-07-04T02:09:21.313Z,24.9
2018-07-04T02:10:17.504Z,24.9
2018-07-04T02:11:18.708Z,24.9
2018-07-04T02:12:16.598Z,24.9
2018-07-04T02:13:18.139Z,24.9
2018-07-04T02:14:22.180Z,24.9
2018-07-04T02:15:31.184Z,24.9
2018-07-04T02:16:26.338Z,24.9
2018-07-04T02:17:41.860Z,24.9
2018-07-04T02:18:35.600Z,24.9
2018-07-04T02:19:36.149Z,24.9
2018-07-04T02:20:37.905Z,24.9
2018-07-04T02:21:52.973Z,24.8
2018-07-04T02:22:51.377Z,24.9
2018-07-04T02:23:52.015Z,24.9
2018-07-04T02:24:49.165Z,24.8
2018-07-04T02:25:49.842Z,24.8
2018-07-04T02:26:50.677Z,24.8
2018-07-04T02:27:47.891Z,24.8
2018-07-04T02:29:02.967Z,24.8
2018-07-04T02:29:58.028Z,24.8
2018-07-04T02:31:00.510Z,24.8
2018-07-04T02:31:58.977Z,24.8
2018-07-04T02:32:57.099Z,24.8
2018-07-04T02:33:54.654Z,24.8
2018-07-04T02:34:55.501Z,24.8
2018-07-04T02:35:53.413Z,24.8
2018-07-04T02:37:00.434Z,24.8
2018-07-04T02:38:00.532Z,24.8
2018-07-04T02:39:08.507Z,24.8
2018-07-04T02:40:03.807Z,24.7
2018-07-04T02:41:14.210Z,24.7
2018-07-04T02:42:11.836Z,24.7
2018-07-04T02:43:08.234Z,24.7
2018-07-04T02:44:05.990Z,24.7
2018-07-04T02:45:08.378Z,24.7
2018-07-04T02:46:06.925Z,24.7
2018-07-04T02:47:08.040Z,24.7
2018-07-04T02:48:15.381Z,24.7
2018-07-04T02:49:11.540Z,24.7
2018-07-04T02:50:11.058Z,24.8
2018-07-04T02:51:16.282Z,24.7
2018-07-04T02:52:12.650Z,24.7
2018-07-04T02:53:13.134Z,24.7
2018-07-04T02:54:11.397Z,24.7
2018-07-04T02:55:15.720Z,24.7
2018-07-04T02:56:15.887Z,24.7
2018-07-04T02:57:34.278Z,24.7
2018-07-04T02:58:29.312Z,24.7
2018-07-04T02:59:27.233Z,24.7
2018-07-04T03:00:27.893Z,24.7
2018-07-04T03:01:26.807Z,24.7
2018-07-04T03:02:26.094Z,24.7
2018-07-04T03:03:26.094Z,24.7
2018-07-04T03:04:24.831Z,24.7
2018-07-04T03:05:23.546Z,24.7
2018-07-04T03:06:25.146Z,24.7
2018-07-04T03:07:20.379Z,24.7
2018-07-04T03:08:33.659Z,24.7
2018-07-04T03:09:25.657Z,24.7
2018-07-04T03:10:27.518Z,24.7
2018-07-04T03:11:27.150Z,24.7
2018-07-04T03:12:27.569Z,24.7
2018-07-04T03:13:27.383Z,24.7
2018-07-04T03:14:27.691Z,24.7
2018-07-04T03:15:24.675Z,24.6
2018-07-04T03:16:23.888Z,24.6
2018-07-04T03:17:30.261Z,24.6
2018-07-04T03:18:40.768Z,24.6
2018-07-04T03:19:35.031Z,24.6
2018-07-04T03:20:36.420Z,24.6
2018-07-04T03:21:35.027Z,24.7
2018-07-04T03:22:33.697Z,24.6
2018-07-04T03:23:35.001Z,24.7
2018-07-04T03:24:29.423Z,24.6
2018-07-04T03:25:30.138Z,24.6
2018-07-04T03:26:28.103Z,24.7
2018-07-04T03:27:27.082Z,24.6
2018-07-04T03:28:25.002Z,24.6
2018-07-04T03:29:22.582Z,24.6
2018-07-04T03:30:23.895Z,24.6
2018-07-04T03:31:21.126Z,24.6
2018-07-04T03:32:18.375Z,24.6
2018-07-04T03:33:18.859Z,24.6
2018-07-04T03:34:28.172Z,24.6
2018-07-04T03:35:22.217Z,24.6
2018-07-04T03:36:23.559Z,24.6
2018-07-04T03:37:21.438Z,24.6
2018-07-04T03:38:16.674Z,24.6
2018-07-04T03:39:26.175Z,24.6
2018-07-04T03:40:30.263Z,24.6
2018-07-04T03:41:30.701Z,24.6
2018-07-04T03:42:29.599Z,24.6
2018-07-04T03:43:32.386Z,24.6
2018-07-04T03:44:31.968Z,24.6
2018-07-04T03:45:28.699Z,24.5
2018-07-04T03:46:30.968Z,24.5
2018-07-04T03:47:26.333Z,24.5
2018-07-04T03:48:24.076Z,24.5
2018-07-04T03:49:23.854Z,24.5
2018-07-04T03:50:24.218Z,24.5
2018-07-04T03:51:46.643Z,24.5
2018-07-04T03:52:41.555Z,24.5
2018-07-04T03:53:37.018Z,24.5
2018-07-04T03:54:41.705Z,24.5
2018-07-04T03:55:39.135Z,24.5
2018-07-04T03:56:37.032Z,24.5
2018-07-04T03:57:35.619Z,24.5
2018-07-04T03:58:38.447Z,24.5
2018-07-04T03:59:35.777Z,24.5
2018-07-04T04:00:31.390Z,24.5
2018-07-04T04:01:31.312Z,24.5
2018-07-04T04:02:32.282Z,24.5
2018-07-04T04:03:30.815Z,24.5
2018-07-04T04:04:40.548Z,24.5
2018-07-04T04:05:42.055Z,24.5
2018-07-04T04:06:39.628Z,24.5
2018-07-04T04:07:38.714Z,24.5
2018-07-04T04:08:42.194Z,24.5
2018-07-04T04:09:41.880Z,24.5
2018-07-04T04:10:51.627Z,24.5
2018-07-04T04:11:52.877Z,24.5
2018-07-04T04:13:00.062Z,24.5
2018-07-04T04:14:00.381Z,24.5
2018-07-04T04:14:54.879Z,24.5
2018-07-04T04:16:04.701Z,24.5
2018-07-04T04:17:02.068Z,24.5
2018-07-04T04:17:59.830Z,24.5
2018-07-04T04:18:59.995Z,24.5
2018-07-04T04:20:01.693Z,24.5
2018-07-04T04:20:56.514Z,24.5
2018-07-04T04:22:00.453Z,24.5
2018-07-04T04:22:57.992Z,24.5
2018-07-04T04:23:57.186Z,24.5
2018-07-04T04:24:54.703Z,24.5
2018-07-04T04:25:54.466Z,24.5
2018-07-04T04:26:56.789Z,24.5
2018-07-04T04:27:58.973Z,24.5
2018-07-04T04:29:03.940Z,24.5
2018-07-04T04:30:04.734Z,24.5
2018-07-04T04:31:06.195Z,24.5
2018-07-04T04:32:07.735Z,24.5
2018-07-04T04:33:10.191Z,24.5
2018-07-04T04:34:05.401Z,24.5
2018-07-04T04:35:18.717Z,24.5
2018-07-04T04:36:13.930Z,24.5
2018-07-04T04:37:12.842Z,24.5
2018-07-04T04:38:14.638Z,24.5
2018-07-04T04:39:10.349Z,24.5
2018-07-04T04:40:07.830Z,24.5
2018-07-04T04:41:09.145Z,24.5
2018-07-04T04:42:13.270Z,24.5
2018-07-04T04:43:14.543Z,24.5
2018-07-04T04:44:10.531Z,24.5
2018-07-04T04:45:24.721Z,24.4
2018-07-04T04:46:24.301Z,24.5
2018-07-04T04:47:20.764Z,24.5
2018-07-04T04:48:19.949Z,24.5
2018-07-04T04:49:28.759Z,24.5
2018-07-04T04:50:27.011Z,24.5
2018-07-04T04:51:24.842Z,24.4
2018-07-04T04:52:20.544Z,24.4
2018-07-04T04:53:25.355Z,24.4
2018-07-04T04:54:29.642Z,24.5
2018-07-04T04:55:38.260Z,24.4
2018-07-04T04:56:33.348Z,24.4
2018-07-04T04:57:34.238Z,24.4
2018-07-04T04:58:35.794Z,24.5
2018-07-04T04:59:31.492Z,24.5
2018-07-04T05:00:43.835Z,24.4
2018-07-04T05:01:38.360Z,24.4
2018-07-04T05:02:39.974Z,24.4
2018-07-04T05:03:43.733Z,24.4
2018-07-04T05:04:38.518Z,24.4
2018-07-04T05:05:46.542Z,24.4
2018-07-04T05:06:49.634Z,24.4
2018-07-04T05:07:50.110Z,24.4
2018-07-04T05:08:51.837Z,24.4
2018-07-04T05:09:52.197Z,24.4
2018-07-04T05:10:49.960Z,24.4
2018-07-04T05:11:45.585Z,24.4
2018-07-04T05:12:48.774Z,24.4
2018-07-04T05:13:59.469Z,24.4
2018-07-04T05:15:09.671Z,24.4
2018-07-04T05:16:08.209Z,24.4
2018-07-04T05:17:03.474Z,24.4
2018-07-04T05:18:01.383Z,24.4
2018-07-04T05:19:00.428Z,24.4
2018-07-04T05:20:01.116Z,24.4
2018-07-04T05:21:04.777Z,24.4
2018-07-04T05:22:02.358Z,24.4
2018-07-04T05:23:07.855Z,24.4
2018-07-04T05:24:10.678Z,24.4
2018-07-04T05:25:07.278Z,24.4
2018-07-04T05:26:09.543Z,24.4
2018-07-04T05:27:12.462Z,24.4
2018-07-04T05:28:18.083Z,24.4
2018-07-04T05:29:20.250Z,24.4
2018-07-04T05:30:31.829Z,24.4
2018-07-04T05:31:27.694Z,24.4
2018-07-04T05:32:25.909Z,24.4
2018-07-04T05:33:25.979Z,24.4
2018-07-04T05:34:26.044Z,24.4
2018-07-04T05:35:26.793Z,24.4
2018-07-04T05:36:24.604Z,24.4
2018-07-04T05:37:24.714Z,24.4
2018-07-04T05:38:25.717Z,24.4
2018-07-04T05:39:27.001Z,24.5
2018-07-04T05:40:34.921Z,24.4
2018-07-04T05:41:27.318Z,24.4
2018-07-04T05:42:26.139Z,24.4
2018-07-04T05:43:30.089Z,24.4
2018-07-04T05:44:28.066Z,24.4
2018-07-04T05:45:37.936Z,24.4
2018-07-04T05:46:40.414Z,24.4
2018-07-04T05:47:41.953Z,24.4
2018-07-04T05:48:48.812Z,24.4
2018-07-04T05:49:52.772Z,24.4
2018-07-04T05:50:51.000Z,24.5
2018-07-04T05:51:58.680Z,24.4
2018-07-04T05:52:59.807Z,24.4
2018-07-04T05:53:59.068Z,24.4
2018-07-04T05:55:02.600Z,24.4
2018-07-04T05:55:57.476Z,24.4
2018-07-04T05:57:13.850Z,24.4
2018-07-04T05:58:07.124Z,24.4
2018-07-04T05:59:08.299Z,24.4
2018-07-04T06:00:10.433Z,24.4
2018-07-04T06:01:15.911Z,24.4
2018-07-04T06:02:14.703Z,24.4
2018-07-04T06:03:17.413Z,24.4
2018-07-04T06:04:13.053Z,24.4
2018-07-04T06:05:16.413Z,24.4
2018-07-04T06:06:11.577Z,24.4
2018-07-04T06:07:09.385Z,24.4
2018-07-04T06:08:21.691Z,24.4
2018-07-04T06:09:19.686Z,24.4
2018-07-04T06:10:24.059Z,24.4
2018-07-04T06:11:19.273Z,24.4
2018-07-04T06:12:25.892Z,24.4
2018-07-04T06:13:24.940Z,24.4
2018-07-04T06:14:27.346Z,24.4
2018-07-04T06:15:30.329Z,24.4
2018-07-04T06:16:28.060Z,24.4
2018-07-04T06:17:25.303Z,24.5
2018-07-04T06:18:24.965Z,24.4
2018-07-04T06:19:26.042Z,24.5
2018-07-04T06:20:24.943Z,24.5
2018-07-04T06:21:22.579Z,24.5
2018-07-04T06:22:32.558Z,24.5
2018-07-04T06:23:30.140Z,24.5
2018-07-04T06:24:28.770Z,24.5
2018-07-04T06:25:27.303Z,24.5
2018-07-04T06:26:28.379Z,24.5
2018-07-04T06:27:32.713Z,24.5
2018-07-04T06:28:30.619Z,24.5
2018-07-04T06:29:28.441Z,24.6
2018-07-04T06:30:51.479Z,24.6
2018-07-04T06:31:47.190Z,24.6
2018-07-04T06:32:44.252Z,24.6
2018-07-04T06:33:49.754Z,24.7
2018-07-04T06:34:52.984Z,24.7
2018-07-04T06:35:55.106Z,24.7
2018-07-04T06:36:50.359Z,24.7
2018-07-04T06:37:50.613Z,24.7
2018-07-04T06:38:48.392Z,24.7
2018-07-04T06:39:43.136Z,24.7
2018-07-04T06:41:07.066Z,24.8
2018-07-04T06:42:03.315Z,24.8
2018-07-04T06:43:03.591Z,24.8
2018-07-04T06:43:58.892Z,24.8
2018-07-04T06:45:02.531Z,24.8
2018-07-04T06:46:07.046Z,24.8
2018-07-04T06:47:05.645Z,24.9
2018-07-04T06:48:02.672Z,24.8
2018-07-04T06:49:08.204Z,24.9
2018-07-04T06:50:06.931Z,24.9
2018-07-04T06:51:01.358Z,24.9
2018-07-04T06:51:59.044Z,24.9
2018-07-04T06:52:56.942Z,24.9
2018-07-04T06:53:56.788Z,25
2018-07-04T06:54:55.691Z,25
2018-07-04T06:56:16.259Z,25
2018-07-04T06:57:12.763Z,25
2018-07-04T06:58:07.824Z,25
2018-07-04T06:59:07.841Z,25
2018-07-04T07:00:07.775Z,25
2018-07-04T07:01:09.395Z,25
2018-07-04T07:02:05.704Z,25.1
2018-07-04T07:03:16.002Z,25.1
2018-07-04T07:04:20.441Z,25.1
2018-07-04T07:05:21.673Z,25.1
2018-07-04T07:06:21.644Z,25.1
2018-07-04T07:07:25.564Z,25.1
2018-07-04T07:08:29.649Z,25.2
2018-07-04T07:09:41.784Z,25.1
2018-07-04T07:10:37.346Z,25.2
2018-07-04T07:11:35.999Z,25.2
2018-07-04T07:12:44.761Z,25.2
2018-07-04T07:13:59.466Z,25.2
2018-07-04T07:15:01.230Z,25.2
2018-07-04T07:15:56.999Z,25.3
2018-07-04T07:16:54.744Z,25.2
2018-07-04T07:17:59.905Z,25.3
2018-07-04T07:18:59.045Z,25.3
2018-07-04T07:19:59.989Z,25.3
2018-07-04T07:20:59.629Z,25.3
2018-07-04T07:21:58.280Z,25.3
2018-07-04T07:23:02.007Z,25.4
2018-07-04T07:24:00.204Z,25.4
2018-07-04T07:25:00.227Z,25.4
2018-07-04T07:25:59.181Z,25.4
2018-07-04T07:27:12.213Z,25.4
2018-07-04T07:28:11.741Z,25.5
2018-07-04T07:29:07.267Z,25.5
2018-07-04T07:30:23.249Z,25.5
2018-07-04T07:31:21.663Z,25.5
2018-07-04T07:32:16.928Z,25.5
2018-07-04T07:33:18.012Z,25.5
2018-07-04T07:34:16.322Z,25.5
2018-07-04T07:35:13.740Z,25.5
2018-07-04T07:36:08.530Z,25.5
2018-07-04T07:37:07.705Z,25.6
2018-07-04T07:38:23.400Z,25.6
2018-07-04T07:39:39.152Z,25.5
2018-07-04T07:40:38.330Z,25.6
2018-07-04T07:41:39.560Z,25.6
2018-07-04T07:42:34.151Z,25.6
2018-07-04T07:43:35.422Z,25.6
2018-07-04T07:44:30.459Z,25.6
2018-07-04T07:45:42.511Z,25.6
2018-07-04T07:46:40.269Z,25.6
2018-07-04T07:47:39.085Z,25.7
2018-07-04T07:48:38.813Z,25.6
2018-07-04T07:49:52.743Z,25.7
2018-07-04T07:50:49.967Z,25.7
2018-07-04T07:52:01.235Z,25.7
2018-07-04T07:52:54.674Z,25.7
2018-07-04T07:53:56.898Z,25.7
2018-07-04T07:54:57.738Z,25.7
2018-07-04T07:56:00.135Z,25.7
2018-07-04T07:57:02.141Z,25.7
2018-07-04T07:57:59.662Z,25.8
2018-07-04T07:58:59.366Z,25.8
2018-07-04T07:59:58.992Z,25.8
2018-07-04T08:01:02.452Z,25.8
2018-07-04T08:02:00.958Z,25.8
2018-07-04T08:02:58.478Z,25.8
2018-07-04T08:04:01.461Z,25.8
2018-07-04T08:05:15.711Z,25.8
2018-07-04T08:06:13.435Z,25.8
2018-07-04T08:07:12.962Z,25.9
2018-07-04T08:08:22.074Z,25.9
2018-07-04T08:09:32.916Z,25.9
2018-07-04T08:10:35.033Z,25.9
2018-07-04T08:11:33.606Z,25.9
2018-07-04T08:12:29.903Z,25.9
2018-07-04T08:13:35.896Z,25.9
2018-07-04T08:14:31.857Z,25.9
2018-07-04T08:15:36.318Z,25.9
2018-07-04T08:16:35.137Z,25.9
2018-07-04T08:17:38.996Z,25.9
2018-07-04T08:18:41.556Z,25.9
2018-07-04T08:19:46.174Z,26
2018-07-04T08:21:04.211Z,26
2018-07-04T08:21:56.270Z,26
2018-07-04T08:23:01.734Z,26
2018-07-04T08:23:57.194Z,26
2018-07-04T08:24:56.048Z,26
2018-07-04T08:25:56.669Z,26
2018-07-04T08:26:57.286Z,26
2018-07-04T08:27:56.830Z,26.1
2018-07-04T08:28:59.954Z,26
2018-07-04T08:30:03.660Z,26.1
2018-07-04T08:31:04.142Z,26
2018-07-04T08:32:06.314Z,26.1
2018-07-04T08:33:01.212Z,26.1
2018-07-04T08:34:03.074Z,26.1
2018-07-04T08:35:01.303Z,26.1
2018-07-04T08:36:09.411Z,26.1
2018-07-04T08:37:21.121Z,26.1
2018-07-04T08:38:20.258Z,26.1
2018-07-04T08:39:17.378Z,26.1
2018-07-04T08:40:18.539Z,26.1
2018-07-04T08:41:27.139Z,26.1
2018-07-04T08:42:24.921Z,26.1
2018-07-04T08:43:27.650Z,26.1
2018-07-04T08:44:30.688Z,26.1
2018-07-04T08:45:26.109Z,26.2
2018-07-04T08:46:28.319Z,26.1
2018-07-04T08:47:26.466Z,26.2
2018-07-04T08:48:26.142Z,26.2
2018-07-04T08:49:32.494Z,26.2
2018-07-04T08:50:32.559Z,26.2
2018-07-04T08:51:30.816Z,26.2
2018-07-04T08:52:34.519Z,26.2
2018-07-04T08:53:48.354Z,26.2
2018-07-04T08:54:44.622Z,26.2
2018-07-04T08:55:49.283Z,26.2
2018-07-04T08:56:48.690Z,26.2
2018-07-04T08:57:45.975Z,26.3
2018-07-04T08:58:50.143Z,26.3
2018-07-04T08:59:56.496Z,26.3
2018-07-04T09:00:51.301Z,26.3
2018-07-04T09:01:58.118Z,26.2
2018-07-04T09:02:56.952Z,26.3
2018-07-04T09:04:09.664Z,26.3
2018-07-04T09:05:06.217Z,26.3
2018-07-04T09:06:11.563Z,26.3
2018-07-04T09:07:10.168Z,26.3
2018-07-04T09:08:06.471Z,26.3
2018-07-04T09:09:06.589Z,26.3
2018-07-04T09:10:07.400Z,26.3
2018-07-04T09:11:08.583Z,26.3
2018-07-04T09:12:10.566Z,26.4
2018-07-04T09:13:09.453Z,26.3
2018-07-04T09:14:14.965Z,26.3
2018-07-04T09:15:15.368Z,26.4
2018-07-04T09:16:19.608Z,26.4
2018-07-04T09:17:18.373Z,26.4
2018-07-04T09:18:18.115Z,26.4
2018-07-04T09:19:21.247Z,26.4
2018-07-04T09:20:37.929Z,26.4
2018-07-04T09:21:34.309Z,26.4
2018-07-04T09:22:32.050Z,26.4
2018-07-04T09:23:33.372Z,26.4
2018-07-04T09:24:33.533Z,26.4
2018-07-04T09:25:32.271Z,26.4
2018-07-04T09:26:33.477Z,26.4
2018-07-04T09:27:32.123Z,26.5
2018-07-04T09:28:27.585Z,26.4
2018-07-04T09:29:27.813Z,26.4
2018-07-04T09:30:27.941Z,26.5
2018-07-04T09:31:42.261Z,26.4
2018-07-04T09:32:41.071Z,26.4
2018-07-04T09:33:40.051Z,26.5
2018-07-04T09:34:38.825Z,26.5
2018-07-04T09:35:39.536Z,26.5
2018-07-04T09:36:37.465Z,26.5
2018-07-04T09:37:35.136Z,26.5
2018-07-04T09:38:30.654Z,26.5
2018-07-04T09:39:32.220Z,26.5
2018-07-04T09:40:28.597Z,26.5
2018-07-04T09:41:35.682Z,26.5
2018-07-04T09:42:28.349Z,26.5
2018-07-04T09:43:27.203Z,26.5
2018-07-04T09:44:28.989Z,26.5
2018-07-04T09:45:28.362Z,26.5
2018-07-04T09:46:32.502Z,26.5
2018-07-04T09:47:29.673Z,26.5
2018-07-04T09:48:27.575Z,26.5
2018-07-04T09:49:39.972Z,26.5
2018-07-04T09:50:36.914Z,26.5
2018-07-04T09:51:34.519Z,26.5
2018-07-04T09:52:33.223Z,26.5
2018-07-04T09:53:35.608Z,26.6
2018-07-04T09:54:34.313Z,26.5
2018-07-04T09:55:36.702Z,26.6
2018-07-04T09:56:35.285Z,26.5
2018-07-04T09:57:35.032Z,26.5
2018-07-04T09:58:35.712Z,26.6
2018-07-04T09:59:32.384Z,26.6
2018-07-04T10:00:35.990Z,26.5
2018-07-04T10:01:35.599Z,26.6
2018-07-04T10:02:47.222Z,26.6
2018-07-04T10:03:41.876Z,26.6
2018-07-04T10:04:45.159Z,26.5
2018-07-04T10:05:49.699Z,26.6
2018-07-04T10:06:53.018Z,26.6
2018-07-04T10:07:50.819Z,26.6
2018-07-04T10:08:49.393Z,26.6
2018-07-04T10:09:55.840Z,26.6
2018-07-04T10:10:54.882Z,26.6
2018-07-04T10:11:52.417Z,26.6
2018-07-04T10:12:51.067Z,26.6
2018-07-04T10:13:49.407Z,26.6
2018-07-04T10:14:52.077Z,26.6
2018-07-04T10:16:05.604Z,26.6
2018-07-04T10:17:11.348Z,26.6
2018-07-04T10:18:23.281Z,26.6
2018-07-04T10:19:17.716Z,26.6
2018-07-04T10:20:15.785Z,26.6
2018-07-04T10:21:14.552Z,26.6
2018-07-04T10:22:17.039Z,26.6
2018-07-04T10:23:20.861Z,26.6
2018-07-04T10:24:17.324Z,26.6
2018-07-04T10:25:15.373Z,26.6
2018-07-04T10:26:17.350Z,26.6
2018-07-04T10:27:12.764Z,26.6
2018-07-04T10:28:10.463Z,26.6
2018-07-04T10:29:11.414Z,26.6
2018-07-04T10:30:14.843Z,26.6
2018-07-04T10:31:17.438Z,26.6
2018-07-04T10:32:17.842Z,26.6
2018-07-04T10:33:29.471Z,26.6
2018-07-04T10:34:22.550Z,26.6
2018-07-04T10:35:23.690Z,26.6
2018-07-04T10:36:19.058Z,26.7
2018-07-04T10:37:22.817Z,26.6
2018-07-04T10:38:20.666Z,26.6
2018-07-04T10:39:24.606Z,26.7
2018-07-04T10:40:21.156Z,26.7
2018-07-04T10:41:22.371Z,26.7
2018-07-04T10:42:29.459Z,26.7
2018-07-04T10:43:27.185Z,26.7
2018-07-04T10:44:25.987Z,26.7
2018-07-04T10:45:51.502Z,26.7
2018-07-04T10:46:39.244Z,26.7
2018-07-04T10:47:33.924Z,26.8
2018-07-04T10:48:32.384Z,26.8
2018-07-04T10:49:34.460Z,26.8
2018-07-04T10:50:37.037Z,26.8
2018-07-04T10:51:35.811Z,26.8
2018-07-04T10:52:31.481Z,26.8
2018-07-04T10:53:29.844Z,26.8
2018-07-04T10:54:31.534Z,26.8
2018-07-04T10:55:28.686Z,26.9
2018-07-04T10:56:26.617Z,26.9
2018-07-04T10:57:40.591Z,26.9
2018-07-04T10:58:32.792Z,26.9
2018-07-04T10:59:50.555Z,26.9
2018-07-04T11:00:53.417Z,26.9
2018-07-04T11:01:57.405Z,26.9
2018-07-04T11:02:55.379Z,26.9
2018-07-04T11:03:57.803Z,27
2018-07-04T11:04:54.924Z,27
2018-07-04T11:05:54.951Z,27
2018-07-04T11:06:56.405Z,27
2018-07-04T11:07:55.090Z,27
2018-07-04T11:08:49.865Z,27
2018-07-04T11:10:01.486Z,27
2018-07-04T11:10:57.921Z,27
2018-07-04T11:11:55.958Z,27
2018-07-04T11:12:54.639Z,27
2018-07-04T11:13:53.485Z,27
2018-07-04T11:14:50.147Z,27
2018-07-04T11:15:51.007Z,27.1
2018-07-04T11:16:53.432Z,27.1
2018-07-04T11:17:50.545Z,27.1
2018-07-04T11:18:51.240Z,27.1
2018-07-04T11:19:49.750Z,27.1
2018-07-04T11:20:53.728Z,27.1
2018-07-04T11:22:10.097Z,27.1
2018-07-04T11:23:08.129Z,27.1
2018-07-04T11:24:03.551Z,27.1
2018-07-04T11:25:04.082Z,27.1
2018-07-04T11:26:01.832Z,27.1
2018-07-04T11:27:01.163Z,27.1
2018-07-04T11:28:00.142Z,27.1
2018-07-04T11:28:59.740Z,27.1
2018-07-04T11:30:00.326Z,27.2
2018-07-04T11:30:58.858Z,27.2
2018-07-04T11:32:07.442Z,27.2
2018-07-04T11:33:05.261Z,27.2
2018-07-04T11:34:04.906Z,27.2
2018-07-04T11:35:02.680Z,27.2
2018-07-04T11:36:17.441Z,27.2
2018-07-04T11:37:15.002Z,27.2
2018-07-04T11:38:17.417Z,27.2
2018-07-04T11:39:12.706Z,27.2
2018-07-04T11:40:10.239Z,27.2
2018-07-04T11:41:11.233Z,27.3
2018-07-04T11:42:11.611Z,27.3
2018-07-04T11:43:07.813Z,27.3
2018-07-04T11:44:06.742Z,27.3
2018-07-04T11:45:07.850Z,27.3
2018-07-04T11:46:07.060Z,27.3
2018-07-04T11:47:33.037Z,27.4
2018-07-04T11:48:25.278Z,27.4
2018-07-04T11:49:26.401Z,27.4
2018-07-04T11:50:35.509Z,27.4
2018-07-04T11:51:37.676Z,27.4
2018-07-04T11:52:34.068Z,27.4
2018-07-04T11:53:35.749Z,27.4
2018-07-04T11:54:35.655Z,27.4
2018-07-04T11:55:33.527Z,27.4
2018-07-04T11:56:34.614Z,27.4
2018-07-04T11:57:32.061Z,27.5
2018-07-04T11:58:32.861Z,27.5
2018-07-04T11:59:34.913Z,27.5
2018-07-04T12:00:37.014Z,27.5
2018-07-04T12:01:32.628Z,27.5
2018-07-04T12:02:30.435Z,27.5
2018-07-04T12:03:29.123Z,27.5
2018-07-04T12:04:35.151Z,27.5
2018-07-04T12:05:35.375Z,27.5
2018-07-04T12:06:33.627Z,27.5
2018-07-04T12:07:34.163Z,27.6
2018-07-04T12:08:55.656Z,27.5
2018-07-04T12:09:58.095Z,27.6
2018-07-04T12:10:57.797Z,27.6
2018-07-04T12:11:54.403Z,27.6
2018-07-04T12:12:52.200Z,27.6
2018-07-04T12:14:04.803Z,27.6
2018-07-04T12:15:05.197Z,27.6
2018-07-04T12:16:04.420Z,27.6
2018-07-04T12:17:05.658Z,27.6
2018-07-04T12:18:07.787Z,27.6
2018-07-04T12:19:07.068Z,27.6
2018-07-04T12:20:06.082Z,27.6
2018-07-04T12:21:10.792Z,27.6
2018-07-04T12:22:34.331Z,27.6
2018-07-04T12:23:27.385Z,27.6
2018-07-04T12:24:29.391Z,27.7
2018-07-04T12:25:29.684Z,27.7
2018-07-04T12:26:32.976Z,27.7
2018-07-04T12:27:35.084Z,27.7
2018-07-04T12:28:35.659Z,27.7
2018-07-04T12:29:37.700Z,27.7
2018-07-04T12:30:35.048Z,27.7
2018-07-04T12:31:35.247Z,27.7
2018-07-04T12:32:32.036Z,27.7
2018-07-04T12:33:42.310Z,27.7
2018-07-04T12:34:36.657Z,27.7
2018-07-04T12:35:37.071Z,27.7
2018-07-04T12:36:34.881Z,27.7
2018-07-04T12:37:33.741Z,27.7
2018-07-04T12:38:31.068Z,27.7
2018-07-04T12:39:32.337Z,27.8
2018-07-04T12:40:30.487Z,27.7
2018-07-04T12:41:35.852Z,27.7
2018-07-04T12:42:34.115Z,27.7
2018-07-04T12:43:42.305Z,27.7
2018-07-04T12:44:37.965Z,27.7
2018-07-04T12:45:41.753Z,27.7
2018-07-04T12:46:54.409Z,27.7
2018-07-04T12:47:48.102Z,27.7
2018-07-04T12:48:50.128Z,27.7
2018-07-04T12:49:50.018Z,27.7
2018-07-04T12:50:48.996Z,27.7
2018-07-04T12:51:52.327Z,27.7
2018-07-04T12:52:52.723Z,27.6
2018-07-04T12:53:47.990Z,27.6
2018-07-04T12:54:45.447Z,27.6
2018-07-04T12:55:43.157Z,27.7
2018-07-04T12:56:41.075Z,27.7
2018-07-04T12:57:43.105Z,27.6
2018-07-04T12:58:56.569Z,27.6
2018-07-04T12:59:50.088Z,27.6
2018-07-04T13:00:53.322Z,27.7
2018-07-04T13:01:48.483Z,27.6
2018-07-04T13:02:51.681Z,27.6
2018-07-04T13:03:49.462Z,27.6
2018-07-04T13:04:47.295Z,27.7
2018-07-04T13:05:46.500Z,27.6
2018-07-04T13:06:47.551Z,27.6
2018-07-04T13:07:47.898Z,27.6
2018-07-04T13:08:46.565Z,27.7
2018-07-04T13:09:49.516Z,27.6
2018-07-04T13:10:48.363Z,27.6
2018-07-04T13:11:51.727Z,27.7
2018-07-04T13:12:52.097Z,27.7
2018-07-04T13:14:04.361Z,27.6
2018-07-04T13:14:57.577Z,27.7
2018-07-04T13:15:58.558Z,27.6
2018-07-04T13:16:58.479Z,27.6
2018-07-04T13:18:02.043Z,27.6
2018-07-04T13:19:00.027Z,27.7
2018-07-04T13:20:01.206Z,27.7
2018-07-04T13:20:58.956Z,27.7
2018-07-04T13:21:56.848Z,27.7
2018-07-04T13:22:56.730Z,27.6
2018-07-04T13:24:23.283Z,27.7
2018-07-04T13:25:23.232Z,27.6
2018-07-04T13:26:24.783Z,27.7
2018-07-04T13:27:24.711Z,27.6
2018-07-04T13:28:29.149Z,27.7
2018-07-04T13:29:29.533Z,27.7
2018-07-04T13:30:31.094Z,27.7
2018-07-04T13:31:26.805Z,27.7
2018-07-04T13:32:27.349Z,27.6
2018-07-04T13:33:23.936Z,27.7
2018-07-04T13:34:26.210Z,27.7
2018-07-04T13:35:38.047Z,27.7
2018-07-04T13:36:30.065Z,27.7